sensor_id;sensor_type;location;lat;lon;timestamp;P1;durP1;ratioP1;P2;durP2;ratioP2
22034;SDS011;11181;51.002;4.356;2022-07-11T00:01:44;4.90;;;3.43;;
22034;SDS011;11181;51.002;4.356;2022-07-11T00:04:11;7.43;;;3.87;;
22034;SDS011;11181;51.002;4.356;2022-07-11T00:06:38;6.97;;;3.33;;
22034;SDS011;11181;51.002;4.356;2022-07-11T00:09:04;6.07;;;3.03;;
22034;SDS011;11181;51.002;4.356;2022-07-11T00:11:31;5.47;;;3.77;;
22034;SDS011;11181;51.002;4.356;2022-07-11T00:13:58;5.07;;;3.33;;
22034;SDS011;11181;51.002;4.356;2022-07-11T00:16:25;5.63;;;3.67;;
22034;SDS011;11181;51.002;4.356;2022-07-11T00:18:53;4.37;;;3.80;;
22034;SDS011;11181;51.002;4.356;2022-07-11T00:21:20;6.63;;;3.77;;
22034;SDS011;11181;51.002;4.356;2022-07-11T00:23:47;5.77;;;3.70;;
22034;SDS011;11181;51.002;4.356;2022-07-11T00:26:14;6.73;;;3.17;;
22034;SDS011;11181;51.002;4.356;2022-07-11T00:28:41;3.40;;;3.10;;
22034;SDS011;11181;51.002;4.356;2022-07-11T00:31:08;4.00;;;3.60;;
22034;SDS011;11181;51.002;4.356;2022-07-11T00:33:35;4.73;;;3.27;;
22034;SDS011;11181;51.002;4.356;2022-07-11T00:36:04;5.20;;;3.00;;
22034;SDS011;11181;51.002;4.356;2022-07-11T00:38:31;5.77;;;3.50;;
22034;SDS011;11181;51.002;4.356;2022-07-11T00:40:58;5.23;;;3.80;;
22034;SDS011;11181;51.002;4.356;2022-07-11T00:43:32;6.97;;;3.00;;
22034;SDS011;11181;51.002;4.356;2022-07-11T00:46:00;3.53;;;3.23;;
22034;SDS011;11181;51.002;4.356;2022-07-11T00:48:27;3.00;;;2.80;;
22034;SDS011;11181;51.002;4.356;2022-07-11T00:50:54;3.93;;;3.10;;
22034;SDS011;11181;51.002;4.356;2022-07-11T00:53:23;4.30;;;3.00;;
22034;SDS011;11181;51.002;4.356;2022-07-11T00:55:51;3.67;;;3.20;;
22034;SDS011;11181;51.002;4.356;2022-07-11T00:58:20;4.47;;;4.03;;
22034;SDS011;11181;51.002;4.356;2022-07-11T01:00:48;3.73;;;3.33;;
22034;SDS011;11181;51.002;4.356;2022-07-11T01:03:15;4.63;;;3.27;;
22034;SDS011;11181;51.002;4.356;2022-07-11T01:05:42;4.50;;;3.43;;
22034;SDS011;11181;51.002;4.356;2022-07-11T01:08:09;5.03;;;4.17;;
22034;SDS011;11181;51.002;4.356;2022-07-11T01:10:38;5.77;;;3.93;;
22034;SDS011;11181;51.002;4.356;2022-07-11T01:13:05;5.27;;;4.37;;
22034;SDS011;11181;51.002;4.356;2022-07-11T01:15:33;8.23;;;5.50;;
22034;SDS011;11181;51.002;4.356;2022-07-11T01:18:01;6.27;;;3.97;;
22034;SDS011;11181;51.002;4.356;2022-07-11T01:20:28;4.70;;;3.83;;
22034;SDS011;11181;51.002;4.356;2022-07-11T01:25:27;9.33;;;4.03;;
22034;SDS011;11181;51.002;4.356;2022-07-11T01:28:00;6.53;;;3.83;;
22034;SDS011;11181;51.002;4.356;2022-07-11T01:30:28;7.07;;;4.17;;
22034;SDS011;11181;51.002;4.356;2022-07-11T01:32:56;4.53;;;3.90;;
22034;SDS011;11181;51.002;4.356;2022-07-11T01:35:24;7.70;;;4.10;;
22034;SDS011;11181;51.002;4.356;2022-07-11T01:37:52;8.17;;;4.50;;
22034;SDS011;11181;51.002;4.356;2022-07-11T01:40:20;5.87;;;3.93;;
22034;SDS011;11181;51.002;4.356;2022-07-11T01:42:47;4.93;;;4.20;;
22034;SDS011;11181;51.002;4.356;2022-07-11T01:45:14;4.27;;;3.80;;
22034;SDS011;11181;51.002;4.356;2022-07-11T01:47:41;5.40;;;4.13;;
22034;SDS011;11181;51.002;4.356;2022-07-11T01:50:08;4.20;;;3.80;;
22034;SDS011;11181;51.002;4.356;2022-07-11T01:52:35;7.33;;;4.23;;
22034;SDS011;11181;51.002;4.356;2022-07-11T01:55:02;4.00;;;3.60;;
22034;SDS011;11181;51.002;4.356;2022-07-11T01:57:30;8.10;;;4.90;;
22034;SDS011;11181;51.002;4.356;2022-07-11T01:59:57;5.83;;;3.97;;
22034;SDS011;11181;51.002;4.356;2022-07-11T02:02:24;7.90;;;4.40;;
22034;SDS011;11181;51.002;4.356;2022-07-11T02:04:51;6.03;;;4.27;;
22034;SDS011;11181;51.002;4.356;2022-07-11T02:07:18;4.23;;;3.83;;
22034;SDS011;11181;51.002;4.356;2022-07-11T02:10:05;6.17;;;4.97;;
22034;SDS011;11181;51.002;4.356;2022-07-11T02:12:34;4.57;;;4.17;;
22034;SDS011;11181;51.002;4.356;2022-07-11T02:15:01;6.43;;;4.60;;
22034;SDS011;11181;51.002;4.356;2022-07-11T02:17:29;7.53;;;4.60;;
22034;SDS011;11181;51.002;4.356;2022-07-11T02:19:56;5.67;;;4.80;;
22034;SDS011;11181;51.002;4.356;2022-07-11T02:22:22;4.67;;;4.27;;
22034;SDS011;11181;51.002;4.356;2022-07-11T02:24:49;8.17;;;4.60;;
22034;SDS011;11181;51.002;4.356;2022-07-11T02:27:16;4.27;;;3.87;;
22034;SDS011;11181;51.002;4.356;2022-07-11T02:29:44;6.27;;;4.40;;
22034;SDS011;11181;51.002;4.356;2022-07-11T02:32:11;4.97;;;4.47;;
22034;SDS011;11181;51.002;4.356;2022-07-11T02:34:38;4.73;;;4.20;;
22034;SDS011;11181;51.002;4.356;2022-07-11T02:37:05;7.30;;;4.23;;
22034;SDS011;11181;51.002;4.356;2022-07-11T02:39:32;5.57;;;4.30;;
22034;SDS011;11181;51.002;4.356;2022-07-11T02:41:59;6.53;;;4.70;;
22034;SDS011;11181;51.002;4.356;2022-07-11T02:44:26;12.20;;;5.37;;
22034;SDS011;11181;51.002;4.356;2022-07-11T02:46:54;6.23;;;4.37;;
22034;SDS011;11181;51.002;4.356;2022-07-11T02:49:21;6.83;;;5.00;;
22034;SDS011;11181;51.002;4.356;2022-07-11T02:51:48;5.97;;;4.60;;
22034;SDS011;11181;51.002;4.356;2022-07-11T02:54:15;7.10;;;4.53;;
22034;SDS011;11181;51.002;4.356;2022-07-11T02:56:42;5.73;;;5.13;;
22034;SDS011;11181;51.002;4.356;2022-07-11T02:59:11;6.63;;;4.90;;
22034;SDS011;11181;51.002;4.356;2022-07-11T03:01:37;9.37;;;5.83;;
22034;SDS011;11181;51.002;4.356;2022-07-11T03:04:07;8.93;;;6.67;;
22034;SDS011;11181;51.002;4.356;2022-07-11T03:06:34;6.53;;;5.83;;
22034;SDS011;11181;51.002;4.356;2022-07-11T03:09:03;10.93;;;4.90;;
22034;SDS011;11181;51.002;4.356;2022-07-11T03:11:31;5.40;;;4.90;;
22034;SDS011;11181;51.002;4.356;2022-07-11T03:13:58;6.47;;;5.20;;
22034;SDS011;11181;51.002;4.356;2022-07-11T03:16:25;6.10;;;4.77;;
22034;SDS011;11181;51.002;4.356;2022-07-11T03:18:53;7.20;;;4.73;;
22034;SDS011;11181;51.002;4.356;2022-07-11T03:21:21;5.23;;;4.73;;
22034;SDS011;11181;51.002;4.356;2022-07-11T03:23:49;9.10;;;5.03;;
22034;SDS011;11181;51.002;4.356;2022-07-11T03:26:16;5.70;;;5.10;;
22034;SDS011;11181;51.002;4.356;2022-07-11T03:28:43;7.47;;;4.57;;
22034;SDS011;11181;51.002;4.356;2022-07-11T03:31:10;8.30;;;5.00;;
22034;SDS011;11181;51.002;4.356;2022-07-11T03:33:37;6.10;;;5.07;;
22034;SDS011;11181;51.002;4.356;2022-07-11T03:36:04;6.90;;;4.57;;
22034;SDS011;11181;51.002;4.356;2022-07-11T03:38:33;5.07;;;4.57;;
22034;SDS011;11181;51.002;4.356;2022-07-11T03:41:00;5.43;;;4.70;;
22034;SDS011;11181;51.002;4.356;2022-07-11T03:43:27;5.13;;;4.63;;
22034;SDS011;11181;51.002;4.356;2022-07-11T03:45:54;7.30;;;5.57;;
22034;SDS011;11181;51.002;4.356;2022-07-11T03:48:21;7.87;;;4.70;;
22034;SDS011;11181;51.002;4.356;2022-07-11T03:50:48;6.23;;;4.97;;
22034;SDS011;11181;51.002;4.356;2022-07-11T03:53:15;6.53;;;4.70;;
22034;SDS011;11181;51.002;4.356;2022-07-11T03:55:44;5.30;;;4.27;;
22034;SDS011;11181;51.002;4.356;2022-07-11T03:58:10;7.07;;;5.23;;
22034;SDS011;11181;51.002;4.356;2022-07-11T04:00:37;6.73;;;4.80;;
22034;SDS011;11181;51.002;4.356;2022-07-11T04:03:04;5.87;;;4.63;;
22034;SDS011;11181;51.002;4.356;2022-07-11T04:05:31;5.77;;;4.90;;
22034;SDS011;11181;51.002;4.356;2022-07-11T04:07:58;5.87;;;5.27;;
22034;SDS011;11181;51.002;4.356;2022-07-11T04:10:25;6.23;;;5.30;;
22034;SDS011;11181;51.002;4.356;2022-07-11T04:12:53;6.00;;;5.40;;
22034;SDS011;11181;51.002;4.356;2022-07-11T04:15:20;6.70;;;4.80;;
22034;SDS011;11181;51.002;4.356;2022-07-11T04:17:47;7.20;;;6.13;;
22034;SDS011;11181;51.002;4.356;2022-07-11T04:20:14;6.97;;;5.70;;
22034;SDS011;11181;51.002;4.356;2022-07-11T04:22:41;6.50;;;5.90;;
22034;SDS011;11181;51.002;4.356;2022-07-11T04:25:08;9.20;;;6.50;;
22034;SDS011;11181;51.002;4.356;2022-07-11T04:27:35;8.50;;;7.00;;
22034;SDS011;11181;51.002;4.356;2022-07-11T04:30:04;10.30;;;6.97;;
22034;SDS011;11181;51.002;4.356;2022-07-11T04:32:32;9.30;;;6.63;;
22034;SDS011;11181;51.002;4.356;2022-07-11T04:35:00;9.27;;;6.87;;
22034;SDS011;11181;51.002;4.356;2022-07-11T04:37:27;8.47;;;7.07;;
22034;SDS011;11181;51.002;4.356;2022-07-11T04:39:54;10.23;;;7.50;;
22034;SDS011;11181;51.002;4.356;2022-07-11T04:42:21;7.53;;;6.40;;
22034;SDS011;11181;51.002;4.356;2022-07-11T04:44:48;7.47;;;6.70;;
22034;SDS011;11181;51.002;4.356;2022-07-11T04:47:16;6.80;;;6.17;;
22034;SDS011;11181;51.002;4.356;2022-07-11T04:49:44;10.37;;;7.27;;
22034;SDS011;11181;51.002;4.356;2022-07-11T04:52:12;12.27;;;8.37;;
22034;SDS011;11181;51.002;4.356;2022-07-11T04:54:39;8.13;;;6.87;;
22034;SDS011;11181;51.002;4.356;2022-07-11T04:57:06;8.83;;;6.73;;
22034;SDS011;11181;51.002;4.356;2022-07-11T04:59:33;13.50;;;8.53;;
22034;SDS011;11181;51.002;4.356;2022-07-11T05:01:59;9.20;;;7.80;;
22034;SDS011;11181;51.002;4.356;2022-07-11T05:04:28;12.03;;;7.73;;
22034;SDS011;11181;51.002;4.356;2022-07-11T05:06:55;8.63;;;6.40;;
22034;SDS011;11181;51.002;4.356;2022-07-11T05:09:22;8.77;;;7.87;;
22034;SDS011;11181;51.002;4.356;2022-07-11T05:11:48;9.27;;;7.63;;
22034;SDS011;11181;51.002;4.356;2022-07-11T05:14:15;11.13;;;8.27;;
22034;SDS011;11181;51.002;4.356;2022-07-11T05:16:42;13.43;;;9.30;;
22034;SDS011;11181;51.002;4.356;2022-07-11T05:19:09;11.00;;;9.03;;
22034;SDS011;11181;51.002;4.356;2022-07-11T05:21:37;10.60;;;7.80;;
22034;SDS011;11181;51.002;4.356;2022-07-11T05:24:04;11.80;;;7.50;;
22034;SDS011;11181;51.002;4.356;2022-07-11T05:26:31;8.80;;;7.33;;
22034;SDS011;11181;51.002;4.356;2022-07-11T05:28:58;10.33;;;8.10;;
22034;SDS011;11181;51.002;4.356;2022-07-11T05:31:25;10.10;;;8.20;;
22034;SDS011;11181;51.002;4.356;2022-07-11T05:33:52;10.40;;;8.87;;
22034;SDS011;11181;51.002;4.356;2022-07-11T05:36:19;15.43;;;11.37;;
22034;SDS011;11181;51.002;4.356;2022-07-11T05:38:47;16.90;;;12.17;;
22034;SDS011;11181;51.002;4.356;2022-07-11T05:41:14;21.00;;;12.67;;
22034;SDS011;11181;51.002;4.356;2022-07-11T05:43:41;20.47;;;13.53;;
22034;SDS011;11181;51.002;4.356;2022-07-11T05:46:08;17.73;;;12.73;;
22034;SDS011;11181;51.002;4.356;2022-07-11T05:48:35;14.17;;;11.60;;
22034;SDS011;11181;51.002;4.356;2022-07-11T05:51:02;18.03;;;10.70;;
22034;SDS011;11181;51.002;4.356;2022-07-11T05:53:29;15.30;;;10.97;;
22034;SDS011;11181;51.002;4.356;2022-07-11T05:55:57;15.30;;;11.00;;
22034;SDS011;11181;51.002;4.356;2022-07-11T05:58:24;17.30;;;10.80;;
22034;SDS011;11181;51.002;4.356;2022-07-11T06:00:51;18.53;;;11.40;;
22034;SDS011;11181;51.002;4.356;2022-07-11T06:03:18;14.63;;;9.97;;
22034;SDS011;11181;51.002;4.356;2022-07-11T06:05:44;13.77;;;10.37;;
22034;SDS011;11181;51.002;4.356;2022-07-11T06:08:13;15.13;;;10.30;;
22034;SDS011;11181;51.002;4.356;2022-07-11T06:10:58;15.53;;;9.27;;
22034;SDS011;11181;51.002;4.356;2022-07-11T06:13:25;15.70;;;9.37;;
22034;SDS011;11181;51.002;4.356;2022-07-11T06:15:54;14.53;;;8.80;;
22034;SDS011;11181;51.002;4.356;2022-07-11T06:18:21;15.00;;;11.03;;
22034;SDS011;11181;51.002;4.356;2022-07-11T06:20:49;17.80;;;9.70;;
22034;SDS011;11181;51.002;4.356;2022-07-11T06:23:16;14.60;;;8.80;;
22034;SDS011;11181;51.002;4.356;2022-07-11T06:25:43;17.57;;;10.43;;
22034;SDS011;11181;51.002;4.356;2022-07-11T06:28:11;12.77;;;9.47;;
22034;SDS011;11181;51.002;4.356;2022-07-11T06:30:38;14.23;;;9.50;;
22034;SDS011;11181;51.002;4.356;2022-07-11T06:33:05;14.47;;;8.97;;
22034;SDS011;11181;51.002;4.356;2022-07-11T06:35:32;10.00;;;8.03;;
22034;SDS011;11181;51.002;4.356;2022-07-11T06:37:59;13.17;;;8.53;;
22034;SDS011;11181;51.002;4.356;2022-07-11T06:40:26;11.83;;;8.27;;
22034;SDS011;11181;51.002;4.356;2022-07-11T06:42:53;12.97;;;8.53;;
22034;SDS011;11181;51.002;4.356;2022-07-11T06:45:21;9.97;;;7.77;;
22034;SDS011;11181;51.002;4.356;2022-07-11T06:47:48;14.80;;;8.97;;
22034;SDS011;11181;51.002;4.356;2022-07-11T06:50:15;14.53;;;8.00;;
22034;SDS011;11181;51.002;4.356;2022-07-11T06:52:42;14.27;;;7.80;;
22034;SDS011;11181;51.002;4.356;2022-07-11T06:55:11;16.27;;;8.93;;
22034;SDS011;11181;51.002;4.356;2022-07-11T06:57:38;11.23;;;9.30;;
22034;SDS011;11181;51.002;4.356;2022-07-11T07:00:05;10.93;;;7.77;;
22034;SDS011;11181;51.002;4.356;2022-07-11T07:02:35;11.17;;;7.60;;
22034;SDS011;11181;51.002;4.356;2022-07-11T07:05:03;8.60;;;7.47;;
22034;SDS011;11181;51.002;4.356;2022-07-11T07:07:31;10.37;;;7.60;;
22034;SDS011;11181;51.002;4.356;2022-07-11T07:09:58;14.53;;;7.97;;
22034;SDS011;11181;51.002;4.356;2022-07-11T07:12:25;13.50;;;9.63;;
22034;SDS011;11181;51.002;4.356;2022-07-11T07:14:52;13.07;;;9.93;;
22034;SDS011;11181;51.002;4.356;2022-07-11T07:17:19;10.83;;;8.40;;
22034;SDS011;11181;51.002;4.356;2022-07-11T07:19:47;12.50;;;8.33;;
22034;SDS011;11181;51.002;4.356;2022-07-11T07:22:14;11.47;;;7.93;;
22034;SDS011;11181;51.002;4.356;2022-07-11T07:24:41;8.23;;;6.80;;
22034;SDS011;11181;51.002;4.356;2022-07-11T07:27:09;10.33;;;8.40;;
22034;SDS011;11181;51.002;4.356;2022-07-11T07:29:36;10.83;;;8.30;;
22034;SDS011;11181;51.002;4.356;2022-07-11T07:32:03;10.13;;;8.50;;
22034;SDS011;11181;51.002;4.356;2022-07-11T07:34:30;10.10;;;8.10;;
22034;SDS011;11181;51.002;4.356;2022-07-11T07:36:59;8.40;;;7.60;;
22034;SDS011;11181;51.002;4.356;2022-07-11T07:39:26;9.83;;;6.70;;
22034;SDS011;11181;51.002;4.356;2022-07-11T07:41:53;7.80;;;6.30;;
22034;SDS011;11181;51.002;4.356;2022-07-11T07:44:20;7.13;;;6.23;;
22034;SDS011;11181;51.002;4.356;2022-07-11T07:46:47;12.07;;;7.47;;
22034;SDS011;11181;51.002;4.356;2022-07-11T07:49:14;10.17;;;7.27;;
22034;SDS011;11181;51.002;4.356;2022-07-11T07:51:41;9.73;;;7.10;;
22034;SDS011;11181;51.002;4.356;2022-07-11T07:54:10;13.53;;;7.73;;
22034;SDS011;11181;51.002;4.356;2022-07-11T07:56:38;12.77;;;6.97;;
22034;SDS011;11181;51.002;4.356;2022-07-11T07:59:05;10.63;;;6.53;;
22034;SDS011;11181;51.002;4.356;2022-07-11T08:01:32;9.43;;;6.40;;
22034;SDS011;11181;51.002;4.356;2022-07-11T08:04:01;7.17;;;4.70;;
22034;SDS011;11181;51.002;4.356;2022-07-11T08:06:28;5.37;;;4.60;;
22034;SDS011;11181;51.002;4.356;2022-07-11T08:08:55;7.43;;;4.60;;
22034;SDS011;11181;51.002;4.356;2022-07-11T08:11:24;7.68;;;5.15;;
22034;SDS011;11181;51.002;4.356;2022-07-11T08:13:51;7.25;;;5.05;;
22034;SDS011;11181;51.002;4.356;2022-07-11T08:16:18;8.45;;;5.32;;
22034;SDS011;11181;51.002;4.356;2022-07-11T08:18:45;10.27;;;5.57;;
22034;SDS011;11181;51.002;4.356;2022-07-11T08:21:13;7.40;;;5.22;;
22034;SDS011;11181;51.002;4.356;2022-07-11T08:23:40;5.68;;;5.07;;
22034;SDS011;11181;51.002;4.356;2022-07-11T08:26:07;5.88;;;4.30;;
22034;SDS011;11181;51.002;4.356;2022-07-11T08:28:35;5.60;;;4.28;;
22034;SDS011;11181;51.002;4.356;2022-07-11T08:31:02;6.22;;;5.20;;
22034;SDS011;11181;51.002;4.356;2022-07-11T08:33:29;7.70;;;3.95;;
22034;SDS011;11181;51.002;4.356;2022-07-11T08:35:56;3.88;;;3.35;;
22034;SDS011;11181;51.002;4.356;2022-07-11T08:38:23;4.78;;;3.92;;
22034;SDS011;11181;51.002;4.356;2022-07-11T08:40:50;4.38;;;3.95;;
22034;SDS011;11181;51.002;4.356;2022-07-11T08:43:17;5.25;;;4.20;;
22034;SDS011;11181;51.002;4.356;2022-07-11T08:45:49;6.97;;;3.25;;
22034;SDS011;11181;51.002;4.356;2022-07-11T08:48:18;3.65;;;3.22;;
22034;SDS011;11181;51.002;4.356;2022-07-11T08:50:46;4.57;;;3.00;;
22034;SDS011;11181;51.002;4.356;2022-07-11T08:53:13;4.82;;;3.30;;
22034;SDS011;11181;51.002;4.356;2022-07-11T08:55:40;2.95;;;2.63;;
22034;SDS011;11181;51.002;4.356;2022-07-11T08:58:08;3.88;;;2.72;;
22034;SDS011;11181;51.002;4.356;2022-07-11T09:00:36;5.25;;;2.88;;
22034;SDS011;11181;51.002;4.356;2022-07-11T09:03:05;2.25;;;2.05;;
22034;SDS011;11181;51.002;4.356;2022-07-11T09:05:33;4.35;;;2.63;;
22034;SDS011;11181;51.002;4.356;2022-07-11T09:08:00;3.17;;;2.60;;
22034;SDS011;11181;51.002;4.356;2022-07-11T09:10:27;3.05;;;2.55;;
22034;SDS011;11181;51.002;4.356;2022-07-11T09:12:57;5.47;;;2.42;;
22034;SDS011;11181;51.002;4.356;2022-07-11T09:15:31;3.40;;;2.70;;
22034;SDS011;11181;51.002;4.356;2022-07-11T09:17:59;3.42;;;2.25;;
22034;SDS011;11181;51.002;4.356;2022-07-11T09:20:28;2.60;;;2.05;;
22034;SDS011;11181;51.002;4.356;2022-07-11T09:23:21;2.58;;;2.20;;
22034;SDS011;11181;51.002;4.356;2022-07-11T09:26:05;4.72;;;3.15;;
22034;SDS011;11181;51.002;4.356;2022-07-11T09:28:32;2.50;;;2.28;;
22034;SDS011;11181;51.002;4.356;2022-07-11T09:31:00;3.28;;;2.65;;
22034;SDS011;11181;51.002;4.356;2022-07-11T09:33:56;3.58;;;1.83;;
22034;SDS011;11181;51.002;4.356;2022-07-11T09:36:34;5.03;;;2.33;;
22034;SDS011;11181;51.002;4.356;2022-07-11T09:39:02;3.72;;;2.15;;
22034;SDS011;11181;51.002;4.356;2022-07-11T09:41:30;2.20;;;2.00;;
22034;SDS011;11181;51.002;4.356;2022-07-11T09:44:12;1.88;;;1.60;;
22034;SDS011;11181;51.002;4.356;2022-07-11T09:46:41;2.78;;;2.03;;
22034;SDS011;11181;51.002;4.356;2022-07-11T09:49:10;2.33;;;1.95;;
22034;SDS011;11181;51.002;4.356;2022-07-11T09:51:39;4.30;;;2.22;;
22034;SDS011;11181;51.002;4.356;2022-07-11T09:54:07;2.28;;;1.90;;
22034;SDS011;11181;51.002;4.356;2022-07-11T09:56:36;4.65;;;2.67;;
22034;SDS011;11181;51.002;4.356;2022-07-11T09:59:06;3.05;;;2.30;;
22034;SDS011;11181;51.002;4.356;2022-07-11T10:01:34;3.05;;;2.30;;
22034;SDS011;11181;51.002;4.356;2022-07-11T10:04:02;2.53;;;2.33;;
22034;SDS011;11181;51.002;4.356;2022-07-11T10:06:31;4.05;;;2.78;;
22034;SDS011;11181;51.002;4.356;2022-07-11T10:08:59;3.17;;;2.88;;
22034;SDS011;11181;51.002;4.356;2022-07-11T10:11:27;5.00;;;2.53;;
22034;SDS011;11181;51.002;4.356;2022-07-11T10:13:56;4.20;;;2.85;;
22034;SDS011;11181;51.002;4.356;2022-07-11T10:16:38;3.08;;;2.78;;
22034;SDS011;11181;51.002;4.356;2022-07-11T10:19:14;5.00;;;2.92;;
22034;SDS011;11181;51.002;4.356;2022-07-11T10:21:51;3.22;;;2.92;;
22034;SDS011;11181;51.002;4.356;2022-07-11T10:24:32;4.70;;;3.42;;
22034;SDS011;11181;51.002;4.356;2022-07-11T10:27:06;6.20;;;2.97;;
22034;SDS011;11181;51.002;4.356;2022-07-11T10:29:39;2.92;;;2.63;;
22034;SDS011;11181;51.002;4.356;2022-07-11T10:32:15;3.92;;;3.22;;
22034;SDS011;11181;51.002;4.356;2022-07-11T10:34:42;4.72;;;4.22;;
22034;SDS011;11181;51.002;4.356;2022-07-11T10:37:10;3.88;;;3.50;;
22034;SDS011;11181;51.002;4.356;2022-07-11T10:39:39;4.43;;;3.70;;
22034;SDS011;11181;51.002;4.356;2022-07-11T10:42:23;5.78;;;3.70;;
22034;SDS011;11181;51.002;4.356;2022-07-11T10:45:06;4.82;;;3.78;;
22034;SDS011;11181;51.002;4.356;2022-07-11T10:47:38;4.45;;;3.70;;
22034;SDS011;11181;51.002;4.356;2022-07-11T10:50:08;6.45;;;3.92;;
22034;SDS011;11181;51.002;4.356;2022-07-11T10:52:47;5.82;;;4.03;;
22034;SDS011;11181;51.002;4.356;2022-07-11T10:55:19;8.82;;;4.70;;
22034;SDS011;11181;51.002;4.356;2022-07-11T10:57:59;6.15;;;4.90;;
22034;SDS011;11181;51.002;4.356;2022-07-11T11:00:32;5.32;;;4.75;;
22034;SDS011;11181;51.002;4.356;2022-07-11T11:03:01;6.75;;;4.93;;
22034;SDS011;11181;51.002;4.356;2022-07-11T11:05:39;4.35;;;3.92;;
22034;SDS011;11181;51.002;4.356;2022-07-11T11:14:22;7.72;;;4.20;;
22034;SDS011;11181;51.002;4.356;2022-07-11T11:16:53;5.97;;;3.85;;
22034;SDS011;11181;51.002;4.356;2022-07-11T11:22:17;4.65;;;3.40;;
22034;SDS011;11181;51.002;4.356;2022-07-11T11:24:45;4.78;;;3.92;;
22034;SDS011;11181;51.002;4.356;2022-07-11T11:27:18;4.25;;;3.83;;
22034;SDS011;11181;51.002;4.356;2022-07-11T11:29:47;5.47;;;3.47;;
22034;SDS011;11181;51.002;4.356;2022-07-11T11:32:16;4.05;;;3.30;;
22034;SDS011;11181;51.002;4.356;2022-07-11T11:34:43;6.32;;;3.83;;
22034;SDS011;11181;51.002;4.356;2022-07-11T11:37:10;4.03;;;3.72;;
22034;SDS011;11181;51.002;4.356;2022-07-11T11:39:37;5.43;;;3.35;;
22034;SDS011;11181;51.002;4.356;2022-07-11T11:42:06;3.90;;;3.50;;
22034;SDS011;11181;51.002;4.356;2022-07-11T11:44:48;4.70;;;3.30;;
22034;SDS011;11181;51.002;4.356;2022-07-11T11:47:21;6.90;;;4.53;;
22034;SDS011;11181;51.002;4.356;2022-07-11T11:49:49;4.72;;;3.35;;
22034;SDS011;11181;51.002;4.356;2022-07-11T11:52:16;3.67;;;3.38;;
22034;SDS011;11181;51.002;4.356;2022-07-11T11:54:49;5.05;;;3.50;;
22034;SDS011;11181;51.002;4.356;2022-07-11T11:57:21;5.15;;;3.15;;
22034;SDS011;11181;51.002;4.356;2022-07-11T11:59:51;4.15;;;3.47;;
22034;SDS011;11181;51.002;4.356;2022-07-11T12:02:22;3.65;;;3.30;;
22034;SDS011;11181;51.002;4.356;2022-07-11T12:04:52;3.38;;;2.95;;
22034;SDS011;11181;51.002;4.356;2022-07-11T12:07:27;7.00;;;4.18;;
22034;SDS011;11181;51.002;4.356;2022-07-11T12:09:55;3.78;;;3.25;;
22034;SDS011;11181;51.002;4.356;2022-07-11T12:12:25;6.50;;;2.95;;
22034;SDS011;11181;51.002;4.356;2022-07-11T12:15:26;6.00;;;3.38;;
22034;SDS011;11181;51.002;4.356;2022-07-11T12:17:57;3.38;;;3.08;;
22034;SDS011;11181;51.002;4.356;2022-07-11T12:20:39;4.43;;;3.28;;
22034;SDS011;11181;51.002;4.356;2022-07-11T12:23:08;4.88;;;2.67;;
22034;SDS011;11181;51.002;4.356;2022-07-11T12:25:36;2.95;;;2.65;;
22034;SDS011;11181;51.002;4.356;2022-07-11T12:28:04;4.13;;;2.97;;
22034;SDS011;11181;51.002;4.356;2022-07-11T12:30:34;5.88;;;3.03;;
22034;SDS011;11181;51.002;4.356;2022-07-11T12:33:02;3.55;;;2.90;;
22034;SDS011;11181;51.002;4.356;2022-07-11T12:35:33;3.10;;;2.60;;
22034;SDS011;11181;51.002;4.356;2022-07-11T12:38:00;3.47;;;3.17;;
22034;SDS011;11181;51.002;4.356;2022-07-11T12:40:27;3.00;;;2.25;;
22034;SDS011;11181;51.002;4.356;2022-07-11T12:42:54;2.67;;;2.47;;
22034;SDS011;11181;51.002;4.356;2022-07-11T12:45:21;3.55;;;2.97;;
22034;SDS011;11181;51.002;4.356;2022-07-11T12:47:49;2.97;;;2.67;;
22034;SDS011;11181;51.002;4.356;2022-07-11T12:50:19;4.05;;;3.03;;
22034;SDS011;11181;51.002;4.356;2022-07-11T12:52:48;5.50;;;2.97;;
22034;SDS011;11181;51.002;4.356;2022-07-11T12:55:20;3.33;;;2.67;;
22034;SDS011;11181;51.002;4.356;2022-07-11T12:58:07;2.50;;;2.30;;
22034;SDS011;11181;51.002;4.356;2022-07-11T13:00:38;3.85;;;2.88;;
22034;SDS011;11181;51.002;4.356;2022-07-11T13:03:28;7.22;;;3.95;;
22034;SDS011;11181;51.002;4.356;2022-07-11T13:05:56;3.15;;;2.85;;
22034;SDS011;11181;51.002;4.356;2022-07-11T13:08:26;3.45;;;3.03;;
22034;SDS011;11181;51.002;4.356;2022-07-11T13:11:13;5.47;;;3.05;;
22034;SDS011;11181;51.002;4.356;2022-07-11T13:13:41;4.70;;;2.75;;
22034;SDS011;11181;51.002;4.356;2022-07-11T13:16:09;5.25;;;2.92;;
22034;SDS011;11181;51.002;4.356;2022-07-11T13:18:37;4.30;;;3.50;;
22034;SDS011;11181;51.002;4.356;2022-07-11T13:21:07;3.90;;;2.70;;
22034;SDS011;11181;51.002;4.356;2022-07-11T13:23:34;4.18;;;3.03;;
22034;SDS011;11181;51.002;4.356;2022-07-11T13:26:02;5.65;;;3.50;;
22034;SDS011;11181;51.002;4.356;2022-07-11T13:28:29;3.05;;;2.72;;
22034;SDS011;11181;51.002;4.356;2022-07-11T13:30:56;5.85;;;3.17;;
22034;SDS011;11181;51.002;4.356;2022-07-11T13:33:23;3.25;;;2.95;;
22034;SDS011;11181;51.002;4.356;2022-07-11T13:35:52;8.63;;;3.38;;
22034;SDS011;11181;51.002;4.356;2022-07-11T13:38:21;3.63;;;2.75;;
22034;SDS011;11181;51.002;4.356;2022-07-11T13:40:48;3.42;;;2.90;;
22034;SDS011;11181;51.002;4.356;2022-07-11T13:43:15;4.60;;;2.85;;
22034;SDS011;11181;51.002;4.356;2022-07-11T13:45:42;3.65;;;2.90;;
22034;SDS011;11181;51.002;4.356;2022-07-11T13:48:10;3.75;;;2.40;;
22034;SDS011;11181;51.002;4.356;2022-07-11T13:50:37;2.63;;;2.22;;
22034;SDS011;11181;51.002;4.356;2022-07-11T13:53:06;4.07;;;2.60;;
22034;SDS011;11181;51.002;4.356;2022-07-11T13:55:33;3.08;;;2.78;;
22034;SDS011;11181;51.002;4.356;2022-07-11T13:58:00;4.10;;;3.70;;
22034;SDS011;11181;51.002;4.356;2022-07-11T14:00:28;3.78;;;2.88;;
22034;SDS011;11181;51.002;4.356;2022-07-11T14:02:57;3.13;;;2.83;;
22034;SDS011;11181;51.002;4.356;2022-07-11T14:05:25;3.63;;;2.78;;
22034;SDS011;11181;51.002;4.356;2022-07-11T14:07:52;4.70;;;3.33;;
22034;SDS011;11181;51.002;4.356;2022-07-11T14:10:20;3.58;;;3.10;;
22034;SDS011;11181;51.002;4.356;2022-07-11T14:12:49;4.03;;;3.45;;
22034;SDS011;11181;51.002;4.356;2022-07-11T14:15:16;5.07;;;3.30;;
22034;SDS011;11181;51.002;4.356;2022-07-11T14:17:43;4.32;;;3.47;;
22034;SDS011;11181;51.002;4.356;2022-07-11T14:20:10;4.95;;;4.05;;
22034;SDS011;11181;51.002;4.356;2022-07-11T14:22:37;3.85;;;3.13;;
22034;SDS011;11181;51.002;4.356;2022-07-11T14:25:05;3.70;;;3.03;;
22034;SDS011;11181;51.002;4.356;2022-07-11T14:27:34;3.33;;;3.03;;
22034;SDS011;11181;51.002;4.356;2022-07-11T14:30:02;4.00;;;3.35;;
22034;SDS011;11181;51.002;4.356;2022-07-11T14:32:30;3.97;;;3.50;;
22034;SDS011;11181;51.002;4.356;2022-07-11T14:34:57;3.70;;;3.38;;
22034;SDS011;11181;51.002;4.356;2022-07-11T14:37:24;7.47;;;3.60;;
22034;SDS011;11181;51.002;4.356;2022-07-11T14:39:51;6.13;;;3.13;;
22034;SDS011;11181;51.002;4.356;2022-07-11T14:42:18;3.92;;;3.58;;
22034;SDS011;11181;51.002;4.356;2022-07-11T14:44:46;8.20;;;4.50;;
22034;SDS011;11181;51.002;4.356;2022-07-11T14:47:16;4.03;;;2.72;;
22034;SDS011;11181;51.002;4.356;2022-07-11T14:49:43;3.40;;;3.10;;
22034;SDS011;11181;51.002;4.356;2022-07-11T14:52:09;4.70;;;3.63;;
22034;SDS011;11181;51.002;4.356;2022-07-11T14:54:36;3.95;;;3.35;;
22034;SDS011;11181;51.002;4.356;2022-07-11T14:57:03;7.63;;;3.40;;
22034;SDS011;11181;51.002;4.356;2022-07-11T14:59:31;4.03;;;3.63;;
22034;SDS011;11181;51.002;4.356;2022-07-11T15:01:59;3.53;;;2.92;;
22034;SDS011;11181;51.002;4.356;2022-07-11T15:04:26;4.82;;;3.08;;
22034;SDS011;11181;51.002;4.356;2022-07-11T15:06:53;3.97;;;2.60;;